createdAt,value
2019-03-31T00:01:18.227Z,14.16
2019-03-31T00:03:42.702Z,14.41
2019-03-31T00:06:07.205Z,14.20
2019-03-31T00:08:31.620Z,13.79
2019-03-31T00:10:56.061Z,13.96
2019-03-31T00:13:20.550Z,14.00
2019-03-31T00:15:45.060Z,13.69
2019-03-31T00:18:09.469Z,13.31
2019-03-31T00:20:34.086Z,12.93
2019-03-31T00:22:58.515Z,12.88
2019-03-31T00:25:22.941Z,12.52
2019-03-31T00:27:47.348Z,13.12
2019-03-31T00:30:11.931Z,12.42
2019-03-31T00:32:36.418Z,13.17
2019-03-31T00:35:01.023Z,12.90
2019-03-31T00:37:25.447Z,13.10
2019-03-31T00:39:49.879Z,12.43
2019-03-31T00:42:14.310Z,12.42
2019-03-31T00:44:38.766Z,12.11
2019-03-31T00:47:03.213Z,12.03
2019-03-31T00:49:27.610Z,12.30
2019-03-31T00:51:52.048Z,12.69
2019-03-31T00:54:16.463Z,12.93
2019-03-31T00:56:40.891Z,12.89
2019-03-31T00:59:05.393Z,13.02
2019-03-31T01:01:36.724Z,12.67
2019-03-31T01:04:01.352Z,12.74
2019-03-31T01:06:26.296Z,11.78
2019-03-31T01:08:50.977Z,12.24
2019-03-31T01:11:19.506Z,12.89
2019-03-31T01:13:45.459Z,12.72
2019-03-31T01:16:12.603Z,12.80
2019-03-31T01:18:36.380Z,12.88
2019-03-31T01:21:00.822Z,12.85
2019-03-31T01:23:25.307Z,12.91
2019-03-31T01:25:49.755Z,12.84
2019-03-31T01:28:14.246Z,12.89
2019-03-31T01:30:38.829Z,12.93
2019-03-31T01:33:03.562Z,12.88
2019-03-31T01:35:28.252Z,12.84
2019-03-31T01:37:52.746Z,12.61
2019-03-31T01:40:17.523Z,12.70
2019-03-31T01:42:41.980Z,12.59
2019-03-31T01:45:07.855Z,12.46
2019-03-31T01:47:32.426Z,12.20
2019-03-31T01:49:56.830Z,12.37
2019-03-31T01:52:21.322Z,11.92
2019-03-31T01:54:45.727Z,12.42
2019-03-31T01:57:10.305Z,12.56
2019-03-31T01:59:34.720Z,12.54
2019-03-31T02:02:04.503Z,11.84
2019-03-31T02:04:25.346Z,11.68
2019-03-31T02:06:49.761Z,12.34
2019-03-31T02:09:14.217Z,12.33
2019-03-31T02:11:38.624Z,12.14
2019-03-31T02:14:03.137Z,11.75
2019-03-31T02:16:27.615Z,11.72
2019-03-31T02:18:52.115Z,11.81
2019-03-31T02:21:16.622Z,11.94
2019-03-31T02:23:41.073Z,11.04
2019-03-31T02:26:05.560Z,11.30
2019-03-31T02:28:30.080Z,11.60
2019-03-31T02:30:54.485Z,11.68
2019-03-31T02:33:18.917Z,11.43
2019-03-31T02:35:43.413Z,11.92
2019-03-31T02:38:07.857Z,10.55
2019-03-31T02:40:32.272Z,11.23
2019-03-31T02:42:56.961Z,11.63
2019-03-31T02:45:21.397Z,11.56
2019-03-31T02:47:45.841Z,11.33
2019-03-31T02:50:11.822Z,11.39
2019-03-31T02:55:13.374Z,11.78
2019-03-31T02:57:38.029Z,11.66
2019-03-31T03:00:03.186Z,11.47
2019-03-31T03:02:41.665Z,11.38
2019-03-31T03:04:57.278Z,11.38
2019-03-31T03:07:22.438Z,11.54
2019-03-31T03:09:49.542Z,11.23
2019-03-31T03:12:15.918Z,10.85
2019-03-31T03:14:40.505Z,10.32
2019-03-31T03:17:05.058Z,11.14
2019-03-31T03:19:29.497Z,10.86
2019-03-31T03:21:53.917Z,11.09
2019-03-31T03:24:18.363Z,10.97
2019-03-31T03:26:42.838Z,10.34
2019-03-31T03:29:07.264Z,10.84
2019-03-31T03:31:31.679Z,10.54
2019-03-31T03:33:56.118Z,10.29
2019-03-31T03:36:20.570Z,10.66
2019-03-31T03:38:45.081Z,10.28
2019-03-31T03:41:09.625Z,9.49
2019-03-31T03:43:34.170Z,9.93
2019-03-31T03:45:58.605Z,9.71
2019-03-31T03:48:23.022Z,10.14
2019-03-31T03:50:47.476Z,9.27
2019-03-31T03:53:12.006Z,9.24
2019-03-31T03:55:36.448Z,9.07
2019-03-31T03:58:00.888Z,8.94
2019-03-31T04:00:25.284Z,9.71
2019-03-31T04:02:49.707Z,9.91
2019-03-31T04:05:14.142Z,9.60
2019-03-31T04:07:38.561Z,9.73
2019-03-31T04:10:03.077Z,10.08
2019-03-31T04:12:27.699Z,9.87
2019-03-31T04:14:52.137Z,9.64
2019-03-31T04:17:16.542Z,9.76
2019-03-31T04:19:40.963Z,9.67
2019-03-31T04:22:05.454Z,10.46
2019-03-31T04:24:31.553Z,10.60
2019-03-31T04:26:55.974Z,9.99
2019-03-31T04:29:20.413Z,10.14
2019-03-31T04:31:44.889Z,10.59
2019-03-31T04:34:09.316Z,10.25
2019-03-31T04:36:33.736Z,10.05
2019-03-31T04:39:00.430Z,10.54
2019-03-31T04:41:24.299Z,10.23
2019-03-31T04:43:48.708Z,10.87
2019-03-31T04:46:13.432Z,11.09
2019-03-31T04:48:37.842Z,10.90
2019-03-31T04:51:02.357Z,10.85
2019-03-31T04:53:26.834Z,10.88
2019-03-31T04:55:51.274Z,10.88
2019-03-31T04:58:15.699Z,10.96
2019-03-31T05:00:40.200Z,10.95
2019-03-31T05:03:04.682Z,11.09
2019-03-31T05:05:29.114Z,10.97
2019-03-31T05:07:53.601Z,10.50
2019-03-31T05:10:18.041Z,10.27
2019-03-31T05:12:42.473Z,10.68
2019-03-31T05:15:07.264Z,10.76
2019-03-31T05:17:31.693Z,10.88
2019-03-31T05:19:56.126Z,11.08
2019-03-31T05:22:20.531Z,11.02
2019-03-31T05:24:44.972Z,10.79
2019-03-31T05:27:09.384Z,10.85
2019-03-31T05:29:33.908Z,10.92
2019-03-31T05:31:58.324Z,10.38
2019-03-31T05:34:22.791Z,10.24
2019-03-31T05:36:47.209Z,9.84
2019-03-31T05:39:11.617Z,9.22
2019-03-31T05:41:36.066Z,8.77
2019-03-31T05:44:05.989Z,8.89
2019-03-31T05:46:26.605Z,8.99
2019-03-31T05:48:50.999Z,8.66
2019-03-31T05:51:15.437Z,8.57
2019-03-31T05:53:39.863Z,8.47
2019-03-31T05:56:04.347Z,8.39
2019-03-31T05:58:28.771Z,8.30
2019-03-31T06:00:53.349Z,8.13
2019-03-31T06:03:17.748Z,8.00
2019-03-31T06:05:42.190Z,7.93
2019-03-31T06:08:06.604Z,8.12
2019-03-31T06:10:31.037Z,8.06
2019-03-31T06:12:55.478Z,8.00
2019-03-31T06:15:19.997Z,8.21
2019-03-31T06:17:44.497Z,8.29
2019-03-31T06:20:09.068Z,8.40
2019-03-31T06:22:33.553Z,8.63
2019-03-31T06:24:58.000Z,9.27
2019-03-31T06:27:22.399Z,9.08
2019-03-31T06:29:46.815Z,9.74
2019-03-31T06:32:11.238Z,10.07
2019-03-31T06:34:46.901Z,10.04
2019-03-31T06:37:01.776Z,10.16
2019-03-31T06:39:26.194Z,10.21
2019-03-31T06:41:50.646Z,10.04
2019-03-31T06:44:15.069Z,10.32
2019-03-31T06:46:39.502Z,10.42
2019-03-31T06:49:03.979Z,9.94
2019-03-31T06:51:28.404Z,9.85
2019-03-31T06:53:52.867Z,10.04
2019-03-31T06:56:17.230Z,9.87
2019-03-31T06:58:41.647Z,9.98
2019-03-31T07:01:06.080Z,9.15
2019-03-31T07:03:30.489Z,9.97
2019-03-31T07:05:54.906Z,10.42
2019-03-31T07:08:19.325Z,10.86
2019-03-31T07:10:43.767Z,9.55
2019-03-31T07:13:08.228Z,9.73
2019-03-31T07:15:32.643Z,10.20
2019-03-31T07:17:57.055Z,10.17
2019-03-31T07:20:21.531Z,10.76
2019-03-31T07:22:46.041Z,10.15
2019-03-31T07:25:12.629Z,10.79
2019-03-31T07:27:38.138Z,11.06
2019-03-31T07:30:02.617Z,11.45
2019-03-31T07:32:27.061Z,11.13
2019-03-31T07:34:51.469Z,10.73
2019-03-31T07:37:15.919Z,11.17
2019-03-31T07:39:40.611Z,11.05
2019-03-31T07:42:05.796Z,11.02
2019-03-31T07:44:30.218Z,10.72
2019-03-31T07:46:54.752Z,11.08
2019-03-31T07:49:19.169Z,11.52
2019-03-31T07:51:43.600Z,11.21
2019-03-31T07:54:08.019Z,10.90
2019-03-31T07:56:32.467Z,10.92
2019-03-31T07:58:56.973Z,11.55
2019-03-31T08:01:21.558Z,11.01
2019-03-31T08:03:45.985Z,11.20
2019-03-31T08:06:10.421Z,11.46
2019-03-31T08:08:34.896Z,11.53
2019-03-31T08:10:59.312Z,11.02
2019-03-31T08:13:23.743Z,10.97
2019-03-31T08:15:48.134Z,11.26
2019-03-31T08:18:12.591Z,11.09
2019-03-31T08:20:36.994Z,10.72
2019-03-31T08:23:01.435Z,11.42
2019-03-31T08:25:25.831Z,10.99
2019-03-31T08:27:50.263Z,11.08
2019-03-31T08:30:15.907Z,10.87
2019-03-31T08:32:40.995Z,11.19
2019-03-31T08:35:09.712Z,10.97
2019-03-31T08:37:34.161Z,10.57
2019-03-31T08:40:00.384Z,11.19
2019-03-31T08:42:24.990Z,11.33
2019-03-31T08:44:49.402Z,10.91
2019-03-31T08:47:13.830Z,11.07
2019-03-31T08:49:38.629Z,11.83
2019-03-31T08:52:03.054Z,11.62
2019-03-31T08:54:27.462Z,11.57
2019-03-31T08:56:51.957Z,11.32
2019-03-31T08:59:16.426Z,10.91
2019-03-31T09:01:40.908Z,11.38
2019-03-31T09:04:05.415Z,11.47
2019-03-31T09:06:29.899Z,11.58
2019-03-31T09:08:54.319Z,12.03
2019-03-31T09:11:18.724Z,12.21
2019-03-31T09:13:43.157Z,12.33
2019-03-31T09:16:07.703Z,11.48
2019-03-31T09:18:32.140Z,11.93
2019-03-31T09:20:56.610Z,12.32
2019-03-31T09:23:21.036Z,12.33
2019-03-31T09:25:47.609Z,12.63
2019-03-31T09:28:11.554Z,12.87
2019-03-31T09:30:36.110Z,12.47
2019-03-31T09:33:00.530Z,12.35
2019-03-31T09:35:24.933Z,12.69
2019-03-31T09:37:49.436Z,13.18
2019-03-31T09:40:14.609Z,13.40
2019-03-31T09:42:39.172Z,13.10
2019-03-31T09:45:03.700Z,13.27
2019-03-31T09:47:28.122Z,13.22
2019-03-31T09:49:52.562Z,13.45
2019-03-31T09:52:16.984Z,13.39
2019-03-31T09:54:41.421Z,13.99
2019-03-31T09:57:05.896Z,13.34
2019-03-31T09:59:30.422Z,13.73
2019-03-31T10:01:54.927Z,13.60
2019-03-31T10:04:19.370Z,14.12
2019-03-31T10:06:44.012Z,13.43
2019-03-31T10:09:08.579Z,13.94
2019-03-31T10:11:33.079Z,13.41
2019-03-31T10:13:57.535Z,14.33
2019-03-31T10:16:21.953Z,14.23
2019-03-31T10:18:46.397Z,13.94
2019-03-31T10:21:10.804Z,14.28
2019-03-31T10:23:35.288Z,15.03
2019-03-31T10:26:01.471Z,14.62
2019-03-31T10:28:28.266Z,14.18
2019-03-31T10:30:52.663Z,14.90
2019-03-31T10:33:17.100Z,14.86
2019-03-31T10:35:41.585Z,15.54
2019-03-31T10:38:06.538Z,14.62
2019-03-31T10:40:31.095Z,15.12
2019-03-31T10:42:55.535Z,14.43
2019-03-31T10:45:20.098Z,14.94
2019-03-31T10:47:44.575Z,14.68
2019-03-31T10:50:09.366Z,14.89
2019-03-31T10:52:33.913Z,15.87
2019-03-31T10:54:58.349Z,15.28
2019-03-31T10:57:22.750Z,15.32
2019-03-31T10:59:47.174Z,14.52
2019-03-31T11:02:11.624Z,14.66
2019-03-31T11:04:36.045Z,15.43
2019-03-31T11:07:03.389Z,15.45
2019-03-31T11:09:26.576Z,15.38
2019-03-31T11:11:51.083Z,15.23
2019-03-31T11:14:15.522Z,15.49
2019-03-31T11:16:39.924Z,15.76
2019-03-31T11:19:04.387Z,15.00
2019-03-31T11:21:30.466Z,14.53
2019-03-31T11:23:54.870Z,15.22
2019-03-31T11:26:19.367Z,16.09
2019-03-31T11:28:43.766Z,15.66
2019-03-31T11:31:08.223Z,15.44
2019-03-31T11:33:32.716Z,15.70
2019-03-31T11:35:57.304Z,15.80
2019-03-31T11:38:21.777Z,15.51
2019-03-31T11:40:46.326Z,15.68
2019-03-31T11:43:10.726Z,15.08
2019-03-31T11:45:35.251Z,16.96
2019-03-31T11:47:59.656Z,17.25
2019-03-31T11:50:24.102Z,15.96
2019-03-31T11:52:48.700Z,15.37
2019-03-31T11:55:13.279Z,17.11
2019-03-31T11:57:37.882Z,17.41
2019-03-31T12:00:02.342Z,17.07
2019-03-31T12:02:27.836Z,16.42
2019-03-31T12:04:52.389Z,17.34
2019-03-31T12:07:27.303Z,16.76
2019-03-31T12:09:42.944Z,17.05
2019-03-31T12:12:07.366Z,17.66
2019-03-31T12:14:31.780Z,18.35
2019-03-31T12:16:56.299Z,17.90
2019-03-31T12:19:20.728Z,17.57
2019-03-31T12:21:45.270Z,16.74
2019-03-31T12:24:09.679Z,17.09
2019-03-31T12:26:34.122Z,17.83
2019-03-31T12:28:58.521Z,18.35
2019-03-31T12:31:22.949Z,17.50
2019-03-31T12:33:47.415Z,16.58
2019-03-31T12:36:11.825Z,16.48
2019-03-31T12:38:36.346Z,16.47
2019-03-31T12:41:00.787Z,17.65
2019-03-31T12:43:25.262Z,19.56
2019-03-31T12:45:49.778Z,18.33
2019-03-31T12:48:14.325Z,17.78
2019-03-31T12:50:38.731Z,19.36
2019-03-31T12:53:03.311Z,18.56
2019-03-31T12:55:27.743Z,18.85
2019-03-31T12:57:52.338Z,20.25
2019-03-31T13:00:16.880Z,19.20
2019-03-31T13:02:41.377Z,20.72
2019-03-31T13:05:07.402Z,26.69
2019-03-31T13:07:31.840Z,25.94
2019-03-31T13:09:56.259Z,27.86
2019-03-31T13:12:20.694Z,26.57
2019-03-31T13:14:45.250Z,26.68
2019-03-31T13:17:09.710Z,29.11
2019-03-31T13:19:34.186Z,30.56
2019-03-31T13:21:58.702Z,29.54
2019-03-31T13:24:23.168Z,32.46
2019-03-31T13:26:47.624Z,32.78
2019-03-31T13:29:12.179Z,29.99
2019-03-31T13:31:36.601Z,31.99
2019-03-31T13:34:01.156Z,30.75
2019-03-31T13:36:25.570Z,27.91
2019-03-31T13:38:50.003Z,31.44
2019-03-31T13:41:14.469Z,28.09
2019-03-31T13:43:38.917Z,32.31
2019-03-31T13:46:03.422Z,29.06
2019-03-31T13:48:27.840Z,26.59
2019-03-31T13:50:52.261Z,33.59
2019-03-31T13:53:16.687Z,31.93
2019-03-31T13:55:41.109Z,32.58
2019-03-31T13:58:08.122Z,33.43
2019-03-31T14:00:37.110Z,35.58
2019-03-31T14:03:01.676Z,36.51
2019-03-31T14:05:26.079Z,34.48
2019-03-31T14:07:50.492Z,36.57
2019-03-31T14:10:15.135Z,35.21
2019-03-31T14:12:39.596Z,36.69
2019-03-31T14:15:18.360Z,36.80
2019-03-31T14:17:32.531Z,32.47
2019-03-31T14:19:56.981Z,34.66
2019-03-31T14:22:21.389Z,35.84
2019-03-31T14:24:45.827Z,36.08
2019-03-31T14:27:10.384Z,35.42
2019-03-31T14:29:34.827Z,35.70
2019-03-31T14:31:59.294Z,37.07
2019-03-31T14:34:23.887Z,37.52
2019-03-31T14:36:48.353Z,36.17
2019-03-31T14:39:12.792Z,35.53
2019-03-31T14:41:37.201Z,35.32
2019-03-31T14:44:01.827Z,31.72
2019-03-31T14:46:26.236Z,33.58
2019-03-31T14:48:50.661Z,36.54
2019-03-31T14:51:15.136Z,36.66
2019-03-31T14:53:39.555Z,35.13
2019-03-31T14:56:04.160Z,31.51
2019-03-31T14:58:28.661Z,36.41
2019-03-31T15:00:53.160Z,35.10
2019-03-31T15:03:18.267Z,36.06
2019-03-31T15:05:42.849Z,33.65
2019-03-31T15:08:07.318Z,34.65
2019-03-31T15:10:31.748Z,31.09
2019-03-31T15:12:56.157Z,32.45
2019-03-31T15:15:20.732Z,32.48
2019-03-31T15:17:45.142Z,33.68
2019-03-31T15:20:10.477Z,33.01
2019-03-31T15:22:34.877Z,32.42
2019-03-31T15:24:59.319Z,34.08
2019-03-31T15:27:23.805Z,32.06
2019-03-31T15:29:48.303Z,34.15
2019-03-31T15:32:13.822Z,35.94
2019-03-31T15:34:38.229Z,34.88
2019-03-31T15:37:02.639Z,35.35
2019-03-31T15:39:27.120Z,31.74
2019-03-31T15:41:51.523Z,31.35
2019-03-31T15:44:15.952Z,31.32
2019-03-31T15:46:40.356Z,30.17
2019-03-31T15:49:04.902Z,28.10
2019-03-31T15:51:29.332Z,29.58
2019-03-31T15:53:53.726Z,27.81
2019-03-31T15:56:18.185Z,26.37
2019-03-31T15:58:42.587Z,23.12
2019-03-31T16:01:07.097Z,22.22
2019-03-31T16:03:33.218Z,20.66
2019-03-31T16:06:00.292Z,22.61
2019-03-31T16:08:24.761Z,21.41
2019-03-31T16:10:49.279Z,21.07
2019-03-31T16:13:13.711Z,21.66
2019-03-31T16:15:38.168Z,21.14
2019-03-31T16:18:02.658Z,20.41
2019-03-31T16:20:27.142Z,20.26
2019-03-31T16:22:51.559Z,21.07
2019-03-31T16:25:35.731Z,20.22
2019-03-31T16:28:00.147Z,19.68
2019-03-31T16:30:24.671Z,18.79
2019-03-31T16:32:49.094Z,18.89
2019-03-31T16:35:13.587Z,18.70
2019-03-31T16:37:38.000Z,19.53
2019-03-31T16:40:02.668Z,19.83
2019-03-31T16:42:27.098Z,18.27
2019-03-31T16:44:58.213Z,18.92
2019-03-31T16:47:17.711Z,18.27
2019-03-31T16:49:42.212Z,18.74
2019-03-31T16:52:06.704Z,19.12
2019-03-31T16:54:31.124Z,18.67
2019-03-31T16:56:55.556Z,18.99
2019-03-31T16:59:19.959Z,18.72
2019-03-31T17:01:44.417Z,18.80
2019-03-31T17:04:08.846Z,18.44
2019-03-31T17:06:33.540Z,18.20
2019-03-31T17:08:57.955Z,18.16
2019-03-31T17:11:22.394Z,18.22
2019-03-31T17:13:46.797Z,17.93
2019-03-31T17:16:11.308Z,17.96
2019-03-31T17:18:35.738Z,17.79
2019-03-31T17:21:00.185Z,17.70
2019-03-31T17:23:24.670Z,17.64
2019-03-31T17:25:49.077Z,17.66
2019-03-31T17:28:13.512Z,17.53
2019-03-31T17:30:37.918Z,17.35
2019-03-31T17:33:02.338Z,17.29
2019-03-31T17:35:26.748Z,17.07
2019-03-31T17:37:51.248Z,17.01
2019-03-31T17:40:15.741Z,16.78
2019-03-31T17:42:40.173Z,16.79
2019-03-31T17:45:07.539Z,16.64
2019-03-31T17:47:31.974Z,16.34
2019-03-31T17:49:56.392Z,16.51
2019-03-31T17:52:20.849Z,16.27
2019-03-31T17:54:45.271Z,16.18
2019-03-31T17:57:09.712Z,16.18
2019-03-31T17:59:34.136Z,15.90
2019-03-31T18:01:58.593Z,15.83
2019-03-31T18:04:23.011Z,15.84
2019-03-31T18:06:47.428Z,15.81
2019-03-31T18:09:11.949Z,15.57
2019-03-31T18:11:36.408Z,15.30
2019-03-31T18:14:00.847Z,15.49
2019-03-31T18:16:25.241Z,15.48
2019-03-31T18:18:49.690Z,15.19
2019-03-31T18:21:14.172Z,15.36
2019-03-31T18:23:38.619Z,15.14
2019-03-31T18:26:03.028Z,15.14
2019-03-31T18:28:27.459Z,15.23
2019-03-31T18:30:51.869Z,15.04
2019-03-31T18:33:16.312Z,15.23
2019-03-31T18:35:40.806Z,15.09
2019-03-31T18:38:07.387Z,14.89
2019-03-31T18:40:35.321Z,15.06
2019-03-31T18:42:58.002Z,15.03
2019-03-31T18:45:22.407Z,14.77
2019-03-31T18:47:46.829Z,14.65
2019-03-31T18:50:11.385Z,14.34
2019-03-31T18:52:35.791Z,14.36
2019-03-31T18:55:01.873Z,14.55
2019-03-31T18:57:30.702Z,14.47
2019-03-31T18:59:59.441Z,14.41
2019-03-31T19:02:28.177Z,14.18
2019-03-31T19:05:10.658Z,14.28
2019-03-31T19:07:42.783Z,14.12
2019-03-31T19:10:25.231Z,13.86
2019-03-31T19:12:51.299Z,13.78
2019-03-31T19:15:20.417Z,13.69
2019-03-31T19:17:55.465Z,13.48
2019-03-31T19:20:24.566Z,13.63
2019-03-31T19:23:02.417Z,13.65
2019-03-31T19:25:28.494Z,13.52
2019-03-31T19:27:54.612Z,13.59
2019-03-31T19:30:23.906Z,13.52
2019-03-31T19:33:05.225Z,13.51
2019-03-31T19:35:34.241Z,13.44
2019-03-31T19:38:06.293Z,13.32
2019-03-31T19:40:41.309Z,13.16
2019-03-31T19:43:09.015Z,13.04
2019-03-31T19:45:41.043Z,13.00
2019-03-31T19:48:10.103Z,13.13
2019-03-31T19:50:53.956Z,12.84
2019-03-31T19:53:22.727Z,12.90
2019-03-31T19:55:48.881Z,12.72
2019-03-31T19:58:17.903Z,12.79
2019-03-31T20:01:00.327Z,12.66
2019-03-31T20:03:26.447Z,12.59
2019-03-31T20:05:55.521Z,12.64
2019-03-31T20:08:36.541Z,12.39
2019-03-31T20:11:14.463Z,12.40
2019-03-31T20:13:40.620Z,12.28
2019-03-31T20:16:12.908Z,12.15
2019-03-31T20:18:44.932Z,12.34
2019-03-31T20:21:32.235Z,12.21
2019-03-31T20:24:13.229Z,12.21
2019-03-31T20:26:48.302Z,12.12
2019-03-31T20:29:17.105Z,12.06
2019-03-31T20:31:43.331Z,11.97
2019-03-31T20:34:12.258Z,11.99
2019-03-31T20:36:44.022Z,11.99
2019-03-31T20:39:13.906Z,11.81
2019-03-31T20:41:42.801Z,11.91
2019-03-31T20:44:07.197Z,11.55
2019-03-31T20:46:31.638Z,11.75
2019-03-31T20:48:56.036Z,11.63
2019-03-31T20:51:20.515Z,11.78
2019-03-31T20:53:44.933Z,11.72
2019-03-31T20:56:09.343Z,11.48
2019-03-31T20:58:33.781Z,11.47
2019-03-31T21:00:58.191Z,11.25
2019-03-31T21:03:22.684Z,11.22
2019-03-31T21:05:47.103Z,11.28
2019-03-31T21:08:11.542Z,11.17
2019-03-31T21:10:36.020Z,11.16
2019-03-31T21:13:00.434Z,11.17
2019-03-31T21:15:24.839Z,11.19
2019-03-31T21:17:49.289Z,11.11
2019-03-31T21:20:13.753Z,10.92
2019-03-31T21:22:38.256Z,10.91
2019-03-31T21:25:03.512Z,10.54
2019-03-31T21:27:28.032Z,10.26
2019-03-31T21:29:52.569Z,10.58
2019-03-31T21:32:16.983Z,10.57
2019-03-31T21:34:41.397Z,10.37
2019-03-31T21:37:05.800Z,10.19
2019-03-31T21:39:30.218Z,10.34
2019-03-31T21:41:54.616Z,10.03
2019-03-31T21:44:19.078Z,9.99
2019-03-31T21:46:43.467Z,10.10
2019-03-31T21:49:07.891Z,10.26
2019-03-31T21:51:32.288Z,10.12
2019-03-31T21:53:56.703Z,10.30
2019-03-31T21:56:21.108Z,10.04
2019-03-31T21:58:45.624Z,9.91
2019-03-31T22:01:10.083Z,9.39
2019-03-31T22:03:34.568Z,9.16
2019-03-31T22:05:58.974Z,9.07
2019-03-31T22:08:23.464Z,9.15
2019-03-31T22:10:47.943Z,9.13
2019-03-31T22:13:12.428Z,9.38
2019-03-31T22:15:36.825Z,9.49
2019-03-31T22:18:01.289Z,8.92
2019-03-31T22:20:25.693Z,9.07
2019-03-31T22:22:50.127Z,9.29
2019-03-31T22:25:14.679Z,8.80
2019-03-31T22:27:39.077Z,8.92
2019-03-31T22:30:05.430Z,8.86
2019-03-31T22:32:29.849Z,8.84
2019-03-31T22:34:54.282Z,8.74
2019-03-31T22:37:18.673Z,8.59
2019-03-31T22:39:43.084Z,8.70
2019-03-31T22:42:07.487Z,8.81
2019-03-31T22:44:31.914Z,8.84
2019-03-31T22:46:56.292Z,8.28
2019-03-31T22:49:20.776Z,8.55
2019-03-31T22:51:45.174Z,8.70
2019-03-31T22:54:09.598Z,8.70
2019-03-31T22:56:33.995Z,8.74
2019-03-31T22:58:58.844Z,8.89
2019-03-31T23:01:23.241Z,8.58
2019-03-31T23:03:47.624Z,8.32
2019-03-31T23:06:12.119Z,8.61
2019-03-31T23:08:36.517Z,8.41
2019-03-31T23:11:00.924Z,8.57
2019-03-31T23:13:25.310Z,8.49
2019-03-31T23:15:49.744Z,8.36
2019-03-31T23:18:14.117Z,8.39
2019-03-31T23:20:38.520Z,8.39
2019-03-31T23:23:02.907Z,8.34
2019-03-31T23:25:27.314Z,8.35
2019-03-31T23:27:51.718Z,8.33
2019-03-31T23:30:16.195Z,8.28
2019-03-31T23:32:40.591Z,8.15
2019-03-31T23:35:06.633Z,7.86
2019-03-31T23:37:31.024Z,7.93
2019-03-31T23:39:55.420Z,8.02
2019-03-31T23:42:19.816Z,7.99
2019-03-31T23:44:44.218Z,7.86
2019-03-31T23:47:08.602Z,7.75
2019-03-31T23:49:33.086Z,7.81
2019-03-31T23:51:57.491Z,7.68
2019-03-31T23:54:21.967Z,7.47
2019-03-31T23:56:46.365Z,7.65
2019-03-31T23:59:10.749Z,7.78
